createdAt,value
2023-10-06T00:01:22.563Z,11.90
2023-10-06T00:03:58.538Z,11.90
2023-10-06T00:06:28.932Z,11.80
2023-10-06T00:08:58.293Z,11.90
2023-10-06T00:11:32.833Z,11.90
2023-10-06T00:14:08.645Z,11.80
2023-10-06T00:16:44.332Z,11.80
2023-10-06T00:19:23.425Z,11.80
2023-10-06T00:22:02.593Z,11.80
2023-10-06T00:24:32.621Z,11.80
2023-10-06T00:27:01.522Z,11.80
2023-10-06T00:29:30.677Z,11.80
2023-10-06T00:32:10.945Z,11.80
2023-10-06T00:34:40.374Z,11.70
2023-10-06T00:37:16.381Z,11.70
2023-10-06T00:39:46.065Z,11.70
2023-10-06T00:42:16.458Z,11.70
2023-10-06T00:44:47.546Z,11.60
2023-10-06T00:47:19.817Z,11.60
2023-10-06T00:49:48.214Z,11.60
2023-10-06T00:52:16.858Z,11.60
2023-10-06T00:54:48.166Z,11.50
2023-10-06T00:57:21.298Z,11.50
2023-10-06T00:59:49.462Z,11.50
2023-10-06T01:02:19.880Z,11.50
2023-10-06T01:04:54.105Z,11.40
2023-10-06T01:07:25.970Z,11.40
2023-10-06T01:09:58.218Z,11.40
2023-10-06T01:12:28.293Z,11.40
2023-10-06T01:15:07.041Z,11.40
2023-10-06T01:17:36.940Z,11.40
2023-10-06T01:20:05.844Z,11.30
2023-10-06T01:22:44.414Z,11.30
2023-10-06T01:25:14.902Z,11.30
2023-10-06T01:27:45.228Z,11.20
2023-10-06T01:30:20.706Z,11.20
2023-10-06T01:32:52.555Z,11.20
2023-10-06T01:35:25.722Z,11.20
2023-10-06T01:38:00.478Z,11.10
2023-10-06T01:40:44.602Z,11.10
2023-10-06T01:43:16.535Z,11.10
2023-10-06T01:45:46.226Z,11.10
2023-10-06T01:48:24.639Z,11.10
2023-10-06T01:50:55.878Z,11.00
2023-10-06T01:53:32.807Z,11.00
2023-10-06T01:56:02.569Z,11.00
2023-10-06T01:58:30.892Z,11.00
2023-10-06T02:00:59.112Z,11.00
2023-10-06T02:03:28.081Z,11.00
2023-10-06T02:06:01.238Z,10.90
2023-10-06T02:08:31.895Z,10.90
2023-10-06T02:11:02.924Z,10.90
2023-10-06T02:13:31.332Z,10.90
2023-10-06T02:16:01.172Z,10.90
2023-10-06T02:18:37.610Z,11.00
2023-10-06T02:21:08.456Z,11.10
2023-10-06T02:23:38.760Z,11.10
2023-10-06T02:26:10.187Z,11.10
2023-10-06T02:28:44.842Z,11.20
2023-10-06T02:31:13.937Z,11.20
2023-10-06T02:33:42.878Z,11.20
2023-10-06T02:36:19.012Z,11.20
2023-10-06T02:38:49.436Z,11.20
2023-10-06T02:41:20.607Z,11.20
2023-10-06T02:43:53.799Z,11.20
2023-10-06T02:46:27.012Z,11.20
2023-10-06T02:48:56.055Z,11.20
2023-10-06T02:51:33.622Z,11.10
2023-10-06T02:54:22.577Z,11.10
2023-10-06T02:56:52.157Z,11.10
2023-10-06T02:59:24.428Z,11.10
2023-10-06T03:01:53.953Z,11.10
2023-10-06T03:04:27.843Z,11.10
2023-10-06T03:07:00.023Z,11.10
2023-10-06T03:09:38.284Z,11.10
2023-10-06T03:12:13.668Z,11.10
2023-10-06T03:14:42.869Z,11.10
2023-10-06T03:17:14.616Z,11.10
2023-10-06T03:19:47.443Z,11.10
2023-10-06T03:22:18.412Z,11.10
2023-10-06T03:24:59.615Z,11.10
2023-10-06T03:27:30.095Z,11.10
2023-10-06T03:30:12.197Z,11.10
2023-10-06T03:32:40.935Z,11.00
2023-10-06T03:35:22.907Z,11.00
2023-10-06T03:38:09.079Z,10.90
2023-10-06T03:40:46.243Z,10.90
2023-10-06T03:43:15.419Z,10.90
2023-10-06T03:45:45.258Z,10.80
2023-10-06T03:48:13.474Z,10.80
2023-10-06T03:50:45.496Z,10.80
2023-10-06T03:53:16.108Z,10.70
2023-10-06T03:55:47.522Z,10.70
2023-10-06T03:58:17.910Z,10.70
2023-10-06T04:00:51.505Z,10.60
2023-10-06T04:03:20.611Z,10.60
2023-10-06T04:05:50.896Z,10.60
2023-10-06T04:08:22.390Z,10.60
2023-10-06T04:10:56.209Z,10.60
2023-10-06T04:13:24.625Z,10.60
2023-10-06T04:15:53.947Z,10.60
2023-10-06T04:18:24.477Z,10.60
2023-10-06T04:20:58.213Z,10.50
2023-10-06T04:23:26.549Z,10.60
2023-10-06T04:25:57.806Z,10.50
2023-10-06T04:28:29.249Z,10.50
2023-10-06T04:30:59.792Z,10.50
2023-10-06T04:33:29.817Z,10.50
2023-10-06T04:36:01.589Z,10.50
2023-10-06T04:38:30.987Z,10.50
2023-10-06T04:41:03.530Z,10.50
2023-10-06T04:43:31.785Z,10.50
2023-10-06T04:46:00.529Z,10.40
2023-10-06T04:48:33.841Z,10.40
2023-10-06T04:51:05.123Z,10.40
2023-10-06T04:53:36.909Z,10.40
2023-10-06T04:56:10.461Z,10.50
2023-10-06T04:58:40.612Z,10.50
2023-10-06T05:01:10.068Z,10.50
2023-10-06T05:03:45.020Z,10.50
2023-10-06T05:06:17.157Z,10.50
2023-10-06T05:08:48.430Z,10.50
2023-10-06T05:11:19.473Z,10.50
2023-10-06T05:13:50.878Z,10.50
2023-10-06T05:16:21.144Z,10.60
2023-10-06T05:18:49.764Z,10.60
2023-10-06T05:21:21.330Z,10.70
2023-10-06T05:23:49.657Z,10.70
2023-10-06T05:26:22.261Z,10.80
2023-10-06T05:28:52.073Z,10.80
2023-10-06T05:31:23.756Z,10.80
2023-10-06T05:33:52.689Z,10.80
2023-10-06T05:36:21.585Z,10.90
2023-10-06T05:38:50.531Z,10.90
2023-10-06T05:41:24.004Z,10.90
2023-10-06T05:43:52.170Z,11.00
2023-10-06T05:46:20.880Z,11.00
2023-10-06T05:48:49.174Z,11.00
2023-10-06T05:51:22.534Z,11.00
2023-10-06T05:53:53.365Z,11.00
2023-10-06T05:56:24.656Z,11.00
2023-10-06T05:58:52.917Z,11.00
2023-10-06T06:01:22.426Z,11.00
2023-10-06T06:03:52.772Z,11.10
2023-10-06T06:06:25.811Z,11.10
2023-10-06T06:08:54.245Z,11.10
2023-10-06T06:11:23.870Z,11.10
2023-10-06T06:14:06.781Z,11.20
2023-10-06T06:16:45.938Z,11.20
2023-10-06T06:19:17.306Z,11.30
2023-10-06T06:21:46.259Z,11.30
2023-10-06T06:24:21.418Z,11.40
2023-10-06T06:26:54.581Z,11.40
2023-10-06T06:29:23.499Z,11.40
2023-10-06T06:31:54.144Z,11.50
2023-10-06T06:34:22.609Z,11.60
2023-10-06T06:36:54.773Z,11.60
2023-10-06T06:39:24.459Z,11.60
2023-10-06T06:41:54.768Z,11.70
2023-10-06T06:44:27.222Z,11.70
2023-10-06T06:46:58.028Z,11.80
2023-10-06T06:49:28.083Z,11.80
2023-10-06T06:51:59.895Z,11.80
2023-10-06T06:54:29.874Z,11.80
2023-10-06T06:56:59.469Z,11.80
2023-10-06T06:59:27.946Z,11.80
2023-10-06T07:01:56.194Z,11.90
2023-10-06T07:04:27.363Z,11.90
2023-10-06T07:06:57.212Z,11.90
2023-10-06T07:09:25.559Z,12.00
2023-10-06T07:11:56.181Z,12.00
2023-10-06T07:14:28.608Z,12.00
2023-10-06T07:16:58.451Z,12.10
2023-10-06T07:19:27.660Z,12.10
2023-10-06T07:21:56.164Z,12.20
2023-10-06T07:24:25.356Z,12.20
2023-10-06T07:26:54.102Z,12.30
2023-10-06T07:29:22.573Z,12.40
2023-10-06T07:31:55.963Z,12.50
2023-10-06T07:34:24.686Z,12.60
2023-10-06T07:36:53.067Z,12.60
2023-10-06T07:39:22.817Z,12.70
2023-10-06T07:41:51.721Z,12.80
2023-10-06T07:44:23.049Z,12.80
2023-10-06T07:46:53.770Z,12.70
2023-10-06T07:49:23.950Z,12.60
2023-10-06T07:51:52.921Z,12.60
2023-10-06T07:54:22.897Z,12.50
2023-10-06T07:56:51.589Z,12.60
2023-10-06T07:59:22.058Z,12.60
2023-10-06T08:01:50.265Z,12.70
2023-10-06T08:04:19.748Z,12.70
2023-10-06T08:06:50.530Z,12.70
2023-10-06T08:09:20.334Z,12.80
2023-10-06T08:11:58.538Z,12.80
2023-10-06T08:14:27.272Z,12.90
2023-10-06T08:16:57.731Z,13.00
2023-10-06T08:19:25.869Z,13.10
2023-10-06T08:21:57.283Z,13.10
2023-10-06T08:24:27.301Z,13.10
2023-10-06T08:26:55.692Z,13.10
2023-10-06T08:29:26.284Z,13.20
2023-10-06T08:31:56.187Z,13.30
2023-10-06T08:34:25.966Z,13.30
2023-10-06T08:36:57.689Z,13.30
2023-10-06T08:39:42.314Z,13.30
2023-10-06T08:42:13.992Z,13.20
2023-10-06T08:44:43.316Z,13.10
2023-10-06T08:47:26.137Z,13.00
2023-10-06T08:49:59.239Z,13.10
2023-10-06T08:52:34.082Z,13.00
2023-10-06T08:55:06.618Z,13.00
2023-10-06T08:57:34.975Z,13.00
2023-10-06T09:00:07.553Z,13.10
2023-10-06T09:02:35.797Z,13.10
2023-10-06T09:05:04.955Z,13.20
2023-10-06T09:07:35.750Z,13.30
2023-10-06T09:10:18.496Z,13.40
2023-10-06T09:12:50.417Z,13.50
2023-10-06T09:15:19.998Z,13.60
2023-10-06T09:17:48.192Z,13.70
2023-10-06T09:20:31.622Z,13.70
2023-10-06T09:23:01.805Z,13.70
2023-10-06T09:25:47.663Z,13.70
2023-10-06T09:28:20.338Z,13.60
2023-10-06T09:30:58.519Z,13.60
2023-10-06T09:33:28.310Z,13.60
2023-10-06T09:36:09.170Z,13.60
2023-10-06T09:38:41.458Z,13.60
2023-10-06T09:41:10.813Z,13.50
2023-10-06T09:43:40.767Z,13.40
2023-10-06T09:46:12.553Z,13.50
2023-10-06T09:48:46.683Z,13.50
2023-10-06T09:51:15.393Z,13.50
2023-10-06T09:53:46.032Z,13.50
2023-10-06T09:56:18.839Z,13.60
2023-10-06T09:58:50.496Z,13.60
2023-10-06T10:01:22.494Z,13.70
2023-10-06T10:03:52.082Z,13.70
2023-10-06T10:06:23.898Z,13.80
2023-10-06T10:08:56.411Z,13.90
2023-10-06T10:11:32.071Z,13.90
2023-10-06T10:14:20.061Z,14.00
2023-10-06T10:17:04.491Z,14.00
2023-10-06T10:19:33.656Z,14.10
2023-10-06T10:22:04.452Z,14.20
2023-10-06T10:27:14.823Z,14.50
2023-10-06T10:29:50.856Z,14.50
2023-10-06T10:32:24.680Z,14.50
2023-10-06T10:35:14.602Z,14.60
2023-10-06T10:38:04.236Z,14.60
2023-10-06T10:40:52.056Z,14.60
2023-10-06T10:43:22.030Z,14.70
2023-10-06T10:45:53.545Z,14.80
2023-10-06T10:48:23.616Z,14.90
2023-10-06T10:51:01.026Z,15.00
2023-10-06T10:53:35.006Z,15.20
2023-10-06T10:56:09.369Z,15.30
2023-10-06T10:59:00.089Z,15.40
2023-10-06T11:01:33.938Z,15.70
2023-10-06T11:04:36.943Z,15.90
2023-10-06T11:07:13.109Z,16.10
2023-10-06T11:09:49.071Z,16.10
2023-10-06T11:12:29.679Z,16.10
2023-10-06T11:15:04.613Z,16.10
2023-10-06T11:17:34.352Z,15.90
2023-10-06T11:20:14.261Z,15.90
2023-10-06T11:22:53.095Z,15.80
2023-10-06T11:25:28.122Z,15.90
2023-10-06T11:28:04.581Z,16.00
2023-10-06T11:30:35.260Z,16.10
2023-10-06T11:33:06.201Z,16.30
2023-10-06T11:35:35.264Z,16.50
2023-10-06T11:38:05.971Z,16.70
2023-10-06T11:40:36.242Z,16.90
2023-10-06T11:43:15.657Z,17.00
2023-10-06T11:45:44.858Z,17.10
2023-10-06T11:48:27.376Z,17.10
2023-10-06T11:51:03.650Z,17.10
2023-10-06T11:53:33.717Z,17.00
2023-10-06T11:56:11.674Z,17.00
2023-10-06T12:01:34.796Z,17.00
2023-10-06T12:04:06.712Z,17.10
2023-10-06T12:06:41.396Z,17.10
2023-10-06T12:09:14.371Z,17.30
2023-10-06T12:11:43.263Z,17.40
2023-10-06T12:14:13.139Z,17.40
2023-10-06T12:19:38.466Z,17.20
2023-10-06T12:22:14.402Z,17.30
2023-10-06T12:24:43.081Z,17.40
2023-10-06T12:27:11.747Z,17.40
2023-10-06T12:29:41.748Z,17.40
2023-10-06T12:32:13.763Z,17.50
2023-10-06T12:34:44.465Z,17.60
2023-10-06T12:37:12.695Z,17.60
2023-10-06T12:39:40.928Z,17.70
2023-10-06T12:42:13.159Z,17.80
2023-10-06T12:44:44.097Z,18.00
2023-10-06T12:47:13.371Z,18.20
2023-10-06T12:49:44.663Z,18.40
2023-10-06T12:52:18.027Z,18.40
2023-10-06T12:54:46.314Z,18.40
2023-10-06T12:57:14.659Z,18.40
2023-10-06T12:59:44.358Z,18.30
2023-10-06T13:02:12.650Z,18.40
2023-10-06T13:04:41.121Z,18.20
2023-10-06T13:07:13.423Z,18.20
2023-10-06T13:09:42.296Z,18.10
2023-10-06T13:12:10.678Z,18.10
2023-10-06T13:14:39.581Z,18.00
2023-10-06T13:17:09.769Z,18.00
2023-10-06T13:19:40.927Z,18.10
2023-10-06T13:22:09.223Z,18.20
2023-10-06T13:24:38.000Z,18.30
2023-10-06T13:27:13.458Z,18.40
2023-10-06T13:29:42.081Z,18.50
2023-10-06T13:32:12.560Z,18.60
2023-10-06T13:34:40.972Z,18.80
2023-10-06T13:37:09.865Z,18.90
2023-10-06T13:39:38.016Z,18.90
2023-10-06T13:42:06.216Z,18.90
2023-10-06T13:44:38.514Z,18.90
2023-10-06T13:47:07.435Z,18.90
2023-10-06T13:49:37.081Z,18.90
2023-10-06T13:52:09.481Z,18.70
2023-10-06T13:54:38.045Z,18.70
2023-10-06T13:57:07.442Z,18.70
2023-10-06T13:59:36.567Z,18.80
2023-10-06T14:02:06.936Z,18.90
2023-10-06T14:04:36.916Z,18.90
2023-10-06T14:07:12.872Z,18.70
2023-10-06T14:09:41.404Z,18.60
2023-10-06T14:12:15.602Z,18.60
2023-10-06T14:15:01.797Z,18.60
2023-10-06T14:17:36.177Z,18.60
2023-10-06T14:20:12.053Z,18.60
2023-10-06T14:22:50.249Z,18.60
2023-10-06T14:25:22.394Z,18.50
2023-10-06T14:27:56.191Z,18.40
2023-10-06T14:30:26.877Z,18.30
2023-10-06T14:33:16.186Z,18.40
2023-10-06T14:35:54.911Z,18.40
2023-10-06T14:38:42.179Z,18.40
2023-10-06T14:41:30.206Z,18.30
2023-10-06T14:44:18.277Z,18.20
2023-10-06T14:46:51.177Z,18.10
2023-10-06T14:49:27.799Z,18.00
2023-10-06T14:51:59.507Z,18.00
2023-10-06T14:54:32.440Z,18.00
2023-10-06T14:57:01.391Z,17.90
2023-10-06T14:59:32.928Z,17.80
2023-10-06T15:02:08.449Z,17.70
2023-10-06T15:04:40.239Z,17.70
2023-10-06T15:07:16.205Z,17.60
2023-10-06T15:09:45.346Z,17.50
2023-10-06T15:12:16.278Z,17.50
2023-10-06T15:14:45.810Z,17.50
2023-10-06T15:17:16.236Z,17.40
2023-10-06T15:19:47.684Z,17.40
2023-10-06T15:22:22.248Z,17.30
2023-10-06T15:24:50.933Z,17.40
2023-10-06T15:27:19.260Z,17.30
2023-10-06T15:29:47.623Z,17.20
2023-10-06T15:32:16.304Z,17.20
2023-10-06T15:34:49.549Z,17.20
2023-10-06T15:37:20.269Z,17.10
2023-10-06T15:39:48.609Z,17.00
2023-10-06T15:42:18.194Z,16.90
2023-10-06T15:44:46.708Z,16.90
2023-10-06T15:47:14.974Z,16.80
2023-10-06T15:49:45.052Z,16.80
2023-10-06T15:52:15.219Z,16.80
2023-10-06T15:54:45.658Z,16.70
2023-10-06T15:57:18.163Z,16.80
2023-10-06T15:59:46.332Z,16.70
2023-10-06T16:02:19.356Z,16.70
2023-10-06T16:04:51.827Z,16.70
2023-10-06T16:07:24.251Z,16.70
2023-10-06T16:09:53.784Z,16.60
2023-10-06T16:12:22.770Z,16.60
2023-10-06T16:14:52.230Z,16.50
2023-10-06T16:17:22.307Z,16.50
2023-10-06T16:19:50.536Z,16.50
2023-10-06T16:22:20.241Z,16.50
2023-10-06T16:24:49.260Z,16.50
2023-10-06T16:27:20.560Z,16.40
2023-10-06T16:29:49.505Z,16.40
2023-10-06T16:32:19.166Z,16.40
2023-10-06T16:34:49.169Z,16.40
2023-10-06T16:37:17.927Z,16.40
2023-10-06T16:39:46.281Z,16.30
2023-10-06T16:42:18.335Z,16.40
2023-10-06T16:44:48.229Z,16.30
2023-10-06T16:47:18.255Z,16.30
2023-10-06T16:49:46.512Z,16.30
2023-10-06T16:52:14.664Z,16.30
2023-10-06T16:54:45.184Z,16.30
2023-10-06T16:57:16.170Z,16.30
2023-10-06T16:59:44.405Z,16.20
2023-10-06T17:02:15.204Z,16.30
2023-10-06T17:04:43.449Z,16.30
2023-10-06T17:07:13.495Z,16.20
2023-10-06T17:09:42.406Z,16.20
2023-10-06T17:12:12.198Z,16.20
2023-10-06T17:14:41.500Z,16.30
2023-10-06T17:17:12.685Z,16.20
2023-10-06T17:19:44.241Z,16.20
2023-10-06T17:22:13.105Z,16.20
2023-10-06T17:24:41.435Z,16.10
2023-10-06T17:27:09.707Z,16.20
2023-10-06T17:29:38.279Z,16.20
2023-10-06T17:32:06.578Z,16.20
2023-10-06T17:34:40.581Z,16.10
2023-10-06T17:37:29.376Z,16.10
2023-10-06T17:39:59.046Z,16.10
2023-10-06T17:42:30.967Z,16.00
2023-10-06T17:44:59.300Z,16.00
2023-10-06T17:47:28.314Z,16.00
2023-10-06T17:49:56.617Z,16.00
2023-10-06T17:52:26.586Z,16.00
2023-10-06T17:54:55.593Z,16.00
2023-10-06T17:57:24.195Z,16.00
2023-10-06T17:59:52.676Z,16.00
2023-10-06T18:02:21.446Z,15.90
2023-10-06T18:04:51.324Z,15.90
2023-10-06T18:07:21.248Z,15.90
2023-10-06T18:09:54.774Z,15.90
2023-10-06T18:12:25.728Z,15.80
2023-10-06T18:15:00.568Z,15.80
2023-10-06T18:17:28.978Z,15.80
2023-10-06T18:19:57.604Z,15.70
2023-10-06T18:22:27.302Z,15.70
2023-10-06T18:25:00.952Z,15.70
2023-10-06T18:27:29.633Z,15.70
2023-10-06T18:29:58.912Z,15.70
2023-10-06T18:32:27.255Z,15.70
2023-10-06T18:34:55.504Z,15.70
2023-10-06T18:37:23.871Z,15.70
2023-10-06T18:39:52.257Z,15.70
2023-10-06T18:42:22.841Z,15.70
2023-10-06T18:44:52.682Z,15.70
2023-10-06T18:47:21.013Z,15.80
2023-10-06T18:49:49.339Z,15.70
2023-10-06T18:52:20.423Z,15.70
2023-10-06T18:54:52.508Z,15.80
2023-10-06T18:57:22.071Z,15.70
2023-10-06T18:59:50.687Z,15.80
2023-10-06T19:02:19.917Z,15.70
2023-10-06T19:04:52.663Z,15.80
2023-10-06T19:07:20.868Z,15.80
2023-10-06T19:09:50.867Z,15.80
2023-10-06T19:12:21.392Z,15.80
2023-10-06T19:14:50.373Z,15.80
2023-10-06T19:17:23.276Z,15.90
2023-10-06T19:19:52.818Z,15.80
2023-10-06T19:22:21.419Z,15.80
2023-10-06T19:24:49.596Z,15.80
2023-10-06T19:27:18.665Z,15.80
2023-10-06T19:29:48.455Z,15.80
2023-10-06T19:32:16.724Z,15.90
2023-10-06T19:34:45.336Z,15.90
2023-10-06T19:37:15.096Z,15.90
2023-10-06T19:39:45.608Z,15.90
2023-10-06T19:42:14.479Z,15.90
2023-10-06T19:44:45.309Z,15.90
2023-10-06T19:47:15.513Z,15.80
2023-10-06T19:49:43.951Z,15.90
2023-10-06T19:52:13.828Z,15.80
2023-10-06T19:54:42.010Z,15.80
2023-10-06T19:57:10.170Z,15.80
2023-10-06T19:59:38.645Z,15.80
2023-10-06T20:02:07.588Z,15.80
2023-10-06T20:04:38.033Z,15.80
2023-10-06T20:07:12.272Z,15.80
2023-10-06T20:09:41.360Z,15.80
2023-10-06T20:12:09.648Z,15.80
2023-10-06T20:14:37.948Z,15.80
2023-10-06T20:17:06.521Z,15.80
2023-10-06T20:19:40.231Z,15.80
2023-10-06T20:22:09.391Z,15.90
2023-10-06T20:24:38.226Z,15.90
2023-10-06T20:27:07.512Z,15.90
2023-10-06T20:29:38.842Z,15.80
2023-10-06T20:32:10.683Z,15.80
2023-10-06T20:34:40.916Z,15.80
2023-10-06T20:37:12.542Z,15.70
2023-10-06T20:39:40.802Z,15.70
2023-10-06T20:42:09.839Z,15.70
2023-10-06T20:44:38.594Z,15.70
2023-10-06T20:47:07.014Z,15.70
2023-10-06T20:49:37.090Z,15.70
2023-10-06T20:52:07.629Z,15.60
2023-10-06T20:54:35.925Z,15.60
2023-10-06T20:57:06.406Z,15.50
2023-10-06T20:59:34.660Z,15.60
2023-10-06T21:02:03.317Z,15.50
2023-10-06T21:04:33.156Z,15.50
2023-10-06T21:07:02.293Z,15.50
2023-10-06T21:09:32.285Z,15.40
2023-10-06T21:12:01.362Z,15.30
2023-10-06T21:14:31.114Z,15.20
2023-10-06T21:16:59.476Z,15.10
2023-10-06T21:19:29.338Z,15.10
2023-10-06T21:21:58.144Z,15.00
2023-10-06T21:24:27.188Z,15.00
2023-10-06T21:26:56.828Z,15.00
2023-10-06T21:29:28.394Z,14.90
2023-10-06T21:31:56.785Z,14.90
2023-10-06T21:34:26.681Z,14.90
2023-10-06T21:36:56.761Z,14.90
2023-10-06T21:39:27.360Z,14.90
2023-10-06T21:41:57.007Z,14.80
2023-10-06T21:44:26.578Z,14.80
2023-10-06T21:46:56.219Z,14.80
2023-10-06T21:49:26.388Z,14.70
2023-10-06T21:51:56.426Z,14.80
2023-10-06T21:54:24.966Z,14.80
2023-10-06T21:56:53.240Z,14.70
2023-10-06T21:59:24.416Z,14.70
2023-10-06T22:01:53.811Z,14.70
2023-10-06T22:04:24.550Z,14.70
2023-10-06T22:06:53.695Z,14.60
2023-10-06T22:09:23.387Z,14.60
2023-10-06T22:11:53.014Z,14.60
2023-10-06T22:14:24.365Z,14.60
2023-10-06T22:16:53.489Z,14.60
2023-10-06T22:19:21.756Z,14.60
2023-10-06T22:21:51.882Z,14.60
2023-10-06T22:24:20.620Z,14.60
2023-10-06T22:26:48.941Z,14.60
2023-10-06T22:29:17.409Z,14.60
2023-10-06T22:31:47.505Z,14.60
2023-10-06T22:34:16.436Z,14.60
2023-10-06T22:36:44.790Z,14.50
2023-10-06T22:39:17.172Z,14.50
2023-10-06T22:41:46.186Z,14.50
2023-10-06T22:44:14.348Z,14.50
2023-10-06T22:46:44.476Z,14.50
2023-10-06T22:49:16.225Z,14.50
2023-10-06T22:51:45.392Z,14.50
2023-10-06T22:54:14.269Z,14.50
2023-10-06T22:56:43.394Z,14.60
2023-10-06T22:59:12.401Z,14.60
2023-10-06T23:01:40.724Z,14.60
2023-10-06T23:04:13.993Z,14.60
2023-10-06T23:06:42.416Z,14.60
2023-10-06T23:09:14.393Z,14.60
2023-10-06T23:11:43.462Z,14.60
2023-10-06T23:14:11.920Z,14.60
2023-10-06T23:16:42.555Z,14.60
2023-10-06T23:19:14.750Z,14.60
2023-10-06T23:21:46.454Z,14.60
2023-10-06T23:24:16.743Z,14.60
2023-10-06T23:26:46.401Z,14.60
2023-10-06T23:29:18.476Z,14.60
2023-10-06T23:31:50.587Z,14.60
2023-10-06T23:34:18.792Z,14.60
2023-10-06T23:36:51.446Z,14.50
2023-10-06T23:39:20.062Z,14.60
2023-10-06T23:41:52.401Z,14.60
2023-10-06T23:44:20.728Z,14.60
2023-10-06T23:46:48.877Z,14.60
2023-10-06T23:49:24.541Z,14.70
2023-10-06T23:51:56.853Z,14.70
2023-10-06T23:54:28.476Z,14.70
2023-10-06T23:56:59.354Z,14.70
2023-10-06T23:59:30.388Z,14.70
